createdAt,value
2019-01-05T00:00:59.005Z,6.10
2019-01-05T00:02:18.812Z,6.10
2019-01-05T00:03:52.603Z,6.20
2019-01-05T00:05:21.293Z,6.20
2019-01-05T00:07:02.349Z,6.20
2019-01-05T00:08:39.691Z,6.20
2019-01-05T00:10:04.268Z,6.20
2019-01-05T00:11:29.123Z,6.20
2019-01-05T00:12:53.345Z,6.20
2019-01-05T00:14:18.414Z,6.20
2019-01-05T00:15:46.214Z,6.20
2019-01-05T00:17:20.578Z,6.30
2019-01-05T00:18:50.103Z,6.20
2019-01-05T00:20:15.353Z,6.20
2019-01-05T00:22:00.571Z,6.20
2019-01-05T00:23:32.077Z,6.20
2019-01-05T00:24:55.728Z,6.30
2019-01-05T00:26:20.207Z,6.30
2019-01-05T00:27:44.733Z,6.30
2019-01-05T00:29:05.961Z,6.20
2019-01-05T00:30:34.300Z,6.30
2019-01-05T00:32:37.464Z,6.30
2019-01-05T00:34:15.175Z,6.30
2019-01-05T00:36:11.112Z,6.30
2019-01-05T00:37:40.375Z,6.30
2019-01-05T00:39:25.171Z,6.30
2019-01-05T00:40:57.149Z,6.30
2019-01-05T00:42:42.780Z,6.30
2019-01-05T00:44:08.640Z,6.30
2019-01-05T00:45:52.470Z,6.30
2019-01-05T00:47:20.771Z,6.30
2019-01-05T00:48:50.663Z,6.30
2019-01-05T00:50:17.231Z,6.30
2019-01-05T00:51:46.395Z,6.30
2019-01-05T00:53:11.607Z,6.30
2019-01-05T00:54:37.630Z,6.30
2019-01-05T00:56:03.878Z,6.30
2019-01-05T00:57:32.086Z,6.30
2019-01-05T00:59:04.084Z,6.40
2019-01-05T01:00:28.688Z,6.40
2019-01-05T01:01:56.578Z,6.40
2019-01-05T01:03:34.740Z,6.40
2019-01-05T01:04:58.809Z,6.40
2019-01-05T01:06:23.084Z,6.40
2019-01-05T01:07:47.867Z,6.40
2019-01-05T01:09:08.638Z,6.40
2019-01-05T01:10:37.357Z,6.40
2019-01-05T01:12:12.239Z,6.40
2019-01-05T01:13:47.034Z,6.40
2019-01-05T01:15:12.296Z,6.50
2019-01-05T01:16:41.859Z,6.50
2019-01-05T01:18:06.255Z,6.50
2019-01-05T01:19:32.846Z,6.50
2019-01-05T01:20:57.700Z,6.50
2019-01-05T01:22:24.361Z,6.50
2019-01-05T01:23:49.235Z,6.60
2019-01-05T01:25:33.468Z,6.60
2019-01-05T01:26:59.823Z,6.60
2019-01-05T01:28:27.066Z,6.60
2019-01-05T01:30:08.464Z,6.60
2019-01-05T01:31:29.052Z,6.60
2019-01-05T01:33:07.114Z,6.60
2019-01-05T01:34:44.793Z,6.60
2019-01-05T01:36:09.956Z,6.60
2019-01-05T01:37:34.610Z,6.60
2019-01-05T01:39:40.515Z,6.60
2019-01-05T01:41:09.603Z,6.60
2019-01-05T01:42:44.329Z,6.60
2019-01-05T01:44:11.420Z,6.50
2019-01-05T01:45:40.399Z,6.60
2019-01-05T01:47:06.782Z,6.60
2019-01-05T01:48:33.157Z,6.60
2019-01-05T01:50:00.270Z,6.70
2019-01-05T01:51:42.879Z,6.70
2019-01-05T01:53:09.439Z,6.70
2019-01-05T01:54:35.885Z,6.60
2019-01-05T01:56:07.866Z,6.70
2019-01-05T01:57:35.287Z,6.70
2019-01-05T01:59:10.277Z,6.80
2019-01-05T02:00:27.778Z,6.70
2019-01-05T02:02:00.829Z,6.80
2019-01-05T02:03:38.855Z,6.70
2019-01-05T02:05:11.585Z,6.80
2019-01-05T02:06:39.802Z,6.80
2019-01-05T02:08:13.709Z,6.80
2019-01-05T02:09:40.468Z,6.80
2019-01-05T02:11:23.616Z,6.80
2019-01-05T02:12:51.622Z,6.80
2019-01-05T02:14:19.637Z,6.80
2019-01-05T02:15:54.245Z,6.90
2019-01-05T02:17:47.615Z,6.90
2019-01-05T02:19:44.267Z,6.90
2019-01-05T02:21:58.707Z,6.90
2019-01-05T02:24:35.665Z,7.00
2019-01-05T02:26:37.076Z,7.00
2019-01-05T02:28:55.894Z,6.90
2019-01-05T02:31:51.170Z,7.00
2019-01-05T02:34:34.921Z,7.00
2019-01-05T02:37:16.351Z,7.10
2019-01-05T02:39:52.714Z,7.10
2019-01-05T02:42:31.814Z,7.10
2019-01-05T02:44:47.561Z,7.20
2019-01-05T02:47:25.535Z,7.20
2019-01-05T02:49:44.432Z,7.20
2019-01-05T02:52:04.217Z,7.20
2019-01-05T02:54:51.338Z,7.20
2019-01-05T02:57:06.137Z,7.20
2019-01-05T02:59:34.355Z,7.20
2019-01-05T03:02:07.805Z,7.20
2019-01-05T03:04:48.360Z,7.30
2019-01-05T03:07:15.504Z,7.20
2019-01-05T03:09:46.187Z,7.20
2019-01-05T03:12:20.016Z,7.30
2019-01-05T03:15:04.466Z,7.30
2019-01-05T03:17:34.712Z,7.30
2019-01-05T03:19:31.410Z,7.20
2019-01-05T03:22:02.149Z,7.30
2019-01-05T03:24:36.957Z,7.30
2019-01-05T03:27:12.062Z,7.30
2019-01-05T03:29:32.421Z,7.40
2019-01-05T03:32:08.917Z,7.30
2019-01-05T03:34:24.776Z,7.30
2019-01-05T03:36:41.100Z,7.30
2019-01-05T03:39:10.108Z,7.30
2019-01-05T03:41:31.629Z,7.30
2019-01-05T03:44:01.058Z,7.30
2019-01-05T03:46:31.808Z,7.30
2019-01-05T03:48:41.804Z,7.30
2019-01-05T03:51:17.211Z,7.30
2019-01-05T03:53:35.454Z,7.40
2019-01-05T03:56:02.092Z,7.40
2019-01-05T03:58:16.476Z,7.40
2019-01-05T04:00:20.836Z,7.30
2019-01-05T04:02:58.980Z,7.30
2019-01-05T04:05:17.150Z,7.30
2019-01-05T04:08:02.959Z,7.30
2019-01-05T04:10:41.315Z,7.30
2019-01-05T04:13:00.434Z,7.30
2019-01-05T04:15:37.135Z,7.30
2019-01-05T04:17:56.536Z,7.30
2019-01-05T04:20:31.305Z,7.30
2019-01-05T04:23:07.682Z,7.30
2019-01-05T04:25:18.655Z,7.20
2019-01-05T04:27:22.842Z,7.30
2019-01-05T04:29:59.373Z,7.20
2019-01-05T04:32:30.494Z,7.20
2019-01-05T04:34:56.308Z,7.30
2019-01-05T04:37:18.983Z,7.20
2019-01-05T04:40:09.658Z,7.20
2019-01-05T04:42:33.103Z,7.20
2019-01-05T04:44:43.726Z,7.20
2019-01-05T04:47:17.489Z,7.20
2019-01-05T04:49:59.609Z,7.30
2019-01-05T04:52:10.573Z,7.30
2019-01-05T04:54:44.307Z,7.30
2019-01-05T04:57:25.782Z,7.30
2019-01-05T04:59:50.927Z,7.20
2019-01-05T05:02:10.972Z,7.20
2019-01-05T05:04:19.147Z,7.20
2019-01-05T05:06:29.816Z,7.20
2019-01-05T05:08:37.421Z,7.20
2019-01-05T05:11:13.217Z,7.20
2019-01-05T05:13:45.807Z,7.20
2019-01-05T05:16:04.073Z,7.20
2019-01-05T05:18:29.211Z,7.20
2019-01-05T05:20:52.323Z,7.20
2019-01-05T05:23:27.999Z,7.20
2019-01-05T05:26:13.420Z,7.20
2019-01-05T05:29:15.611Z,7.20
2019-01-05T05:31:42.627Z,7.10
2019-01-05T05:34:03.510Z,7.20
2019-01-05T05:36:29.498Z,7.20
2019-01-05T05:38:58.110Z,7.20
2019-01-05T05:41:46.251Z,7.20
2019-01-05T05:43:59.917Z,7.20
2019-01-05T05:46:25.518Z,7.20
2019-01-05T05:48:57.072Z,7.20
2019-01-05T05:51:32.710Z,7.20
2019-01-05T05:54:24.457Z,7.20
2019-01-05T05:57:11.361Z,7.10
2019-01-05T05:59:47.627Z,7.20
2019-01-05T06:02:35.837Z,7.10
2019-01-05T06:05:11.135Z,7.10
2019-01-05T06:07:45.856Z,7.10
2019-01-05T06:10:07.987Z,7.10
2019-01-05T06:12:18.479Z,7.10
2019-01-05T06:14:38.695Z,7.10
2019-01-05T06:16:44.829Z,7.10
2019-01-05T06:19:10.072Z,7.20
2019-01-05T06:21:37.743Z,7.20
2019-01-05T06:24:10.542Z,7.10
2019-01-05T06:26:42.287Z,7.20
2019-01-05T06:29:11.668Z,7.20
2019-01-05T06:31:42.749Z,7.20
2019-01-05T06:34:15.701Z,7.20
2019-01-05T06:36:59.017Z,7.20
2019-01-05T06:39:31.596Z,7.20
2019-01-05T06:42:07.554Z,7.20
2019-01-05T06:44:48.601Z,7.20
2019-01-05T06:47:26.249Z,7.20
2019-01-05T06:49:58.952Z,7.20
2019-01-05T06:52:46.230Z,7.20
2019-01-05T06:55:19.577Z,7.20
2019-01-05T06:58:24.478Z,7.20
2019-01-05T07:00:59.904Z,7.20
2019-01-05T07:03:30.913Z,7.20
2019-01-05T07:05:54.382Z,7.30
2019-01-05T07:08:31.101Z,7.20
2019-01-05T07:11:20.855Z,7.20
2019-01-05T07:14:13.945Z,7.20
2019-01-05T07:16:46.637Z,7.20
2019-01-05T07:19:18.755Z,7.20
2019-01-05T07:21:42.574Z,7.10
2019-01-05T07:24:33.816Z,7.20
2019-01-05T07:27:10.135Z,7.20
2019-01-05T07:29:38.299Z,7.20
2019-01-05T07:32:11.523Z,7.20
2019-01-05T07:34:35.401Z,7.20
2019-01-05T07:37:10.924Z,7.20
2019-01-05T07:39:42.427Z,7.10
2019-01-05T07:42:42.137Z,7.20
2019-01-05T07:45:15.462Z,7.20
2019-01-05T07:47:51.959Z,7.10
2019-01-05T07:50:36.695Z,7.20
2019-01-05T07:53:20.846Z,7.20
2019-01-05T07:55:39.769Z,7.20
2019-01-05T07:58:13.512Z,7.20
2019-01-05T08:00:33.727Z,7.30
2019-01-05T08:03:12.215Z,7.20
2019-01-05T08:05:59.949Z,7.20
2019-01-05T08:08:50.838Z,7.20
2019-01-05T08:11:03.115Z,7.20
2019-01-05T08:13:32.543Z,7.20
2019-01-05T08:15:49.974Z,7.30
2019-01-05T08:18:15.658Z,7.30
2019-01-05T08:20:50.340Z,7.20
2019-01-05T08:23:19.316Z,7.30
2019-01-05T08:25:47.554Z,7.20
2019-01-05T08:28:43.606Z,7.20
2019-01-05T08:31:08.985Z,7.20
2019-01-05T08:33:49.471Z,7.20
2019-01-05T08:36:08.451Z,7.20
2019-01-05T08:38:32.801Z,7.20
2019-01-05T08:40:59.448Z,7.20
2019-01-05T08:43:31.246Z,7.20
2019-01-05T08:45:59.864Z,7.20
2019-01-05T08:48:18.675Z,7.20
2019-01-05T08:50:42.024Z,7.20
2019-01-05T08:53:14.581Z,7.30
2019-01-05T08:55:33.452Z,7.30
2019-01-05T08:58:25.596Z,7.20
2019-01-05T09:00:44.117Z,7.30
2019-01-05T09:03:13.089Z,7.20
2019-01-05T09:05:41.288Z,7.20
2019-01-05T09:08:09.650Z,7.20
2019-01-05T09:10:40.830Z,7.30
2019-01-05T09:13:19.093Z,7.30
2019-01-05T09:15:52.240Z,7.30
2019-01-05T09:18:33.946Z,7.30
2019-01-05T09:20:50.652Z,7.30
2019-01-05T09:23:36.459Z,7.20
2019-01-05T09:26:09.438Z,7.30
2019-01-05T09:28:26.668Z,7.30
2019-01-05T09:31:06.750Z,7.20
2019-01-05T09:33:20.888Z,7.30
2019-01-05T09:35:41.645Z,7.30
2019-01-05T09:38:07.656Z,7.30
2019-01-05T09:40:49.986Z,7.30
2019-01-05T09:43:20.843Z,7.30
2019-01-05T09:46:01.826Z,7.20
2019-01-05T09:48:17.818Z,7.30
2019-01-05T09:50:58.103Z,7.30
2019-01-05T09:53:13.796Z,7.30
2019-01-05T09:55:31.064Z,7.30
2019-01-05T09:58:01.362Z,7.40
2019-01-05T10:00:48.492Z,7.40
2019-01-05T10:03:08.939Z,7.40
2019-01-05T10:05:30.877Z,7.40
2019-01-05T10:07:45.970Z,7.50
2019-01-05T10:10:36.503Z,7.50
2019-01-05T10:13:14.724Z,7.50
2019-01-05T10:15:38.145Z,7.40
2019-01-05T10:18:02.548Z,7.40
2019-01-05T10:20:39.516Z,7.50
2019-01-05T10:23:19.457Z,7.50
2019-01-05T10:25:57.330Z,7.60
2019-01-05T10:27:56.252Z,7.50
2019-01-05T10:30:19.585Z,7.50
2019-01-05T10:32:47.158Z,7.50
2019-01-05T10:35:08.947Z,7.60
2019-01-05T10:38:04.127Z,7.50
2019-01-05T10:40:54.206Z,7.50
2019-01-05T10:43:24.529Z,7.50
2019-01-05T10:45:47.157Z,7.50
2019-01-05T10:48:00.126Z,7.50
2019-01-05T10:50:45.568Z,7.50
2019-01-05T10:53:13.443Z,7.50
2019-01-05T10:55:33.058Z,7.50
2019-01-05T10:58:10.789Z,7.50
2019-01-05T11:01:05.241Z,7.60
2019-01-05T11:03:24.455Z,7.60
2019-01-05T11:05:50.013Z,7.60
2019-01-05T11:07:57.969Z,7.60
2019-01-05T11:10:24.274Z,7.60
2019-01-05T11:12:54.235Z,7.60
2019-01-05T11:15:23.557Z,7.60
2019-01-05T11:18:01.550Z,7.60
2019-01-05T11:20:17.599Z,7.60
2019-01-05T11:22:35.078Z,7.60
2019-01-05T11:25:12.523Z,7.70
2019-01-05T11:27:33.695Z,7.60
2019-01-05T11:30:09.371Z,7.70
2019-01-05T11:32:23.399Z,7.60
2019-01-05T11:34:46.688Z,7.60
2019-01-05T11:37:17.345Z,7.70
2019-01-05T11:39:48.603Z,7.70
2019-01-05T11:42:23.191Z,7.70
2019-01-05T11:44:32.692Z,7.70
2019-01-05T11:47:06.486Z,7.70
2019-01-05T11:49:43.013Z,7.70
2019-01-05T11:52:01.255Z,7.60
2019-01-05T11:54:16.157Z,7.70
2019-01-05T11:56:39.648Z,7.60
2019-01-05T11:58:51.793Z,7.60
2019-01-05T12:01:38.139Z,7.70
2019-01-05T12:03:58.772Z,7.70
2019-01-05T12:06:41.087Z,7.70
2019-01-05T12:09:08.975Z,7.70
2019-01-05T12:11:36.248Z,7.70
2019-01-05T12:13:57.404Z,7.70
2019-01-05T12:16:21.389Z,7.70
2019-01-05T12:18:49.313Z,7.70
2019-01-05T12:21:02.969Z,7.70
2019-01-05T12:23:44.865Z,7.70
2019-01-05T12:26:28.709Z,7.70
2019-01-05T12:28:58.877Z,7.60
2019-01-05T12:31:45.229Z,7.70
2019-01-05T12:34:23.292Z,7.70
2019-01-05T12:36:55.559Z,7.70
2019-01-05T12:39:51.943Z,7.70
2019-01-05T12:42:14.372Z,7.60
2019-01-05T12:44:27.982Z,7.60
2019-01-05T12:47:23.712Z,7.70
2019-01-05T12:49:34.302Z,7.70
2019-01-05T12:52:22.814Z,7.70
2019-01-05T12:54:58.192Z,7.70
2019-01-05T12:57:19.007Z,7.70
2019-01-05T12:59:33.675Z,7.70
2019-01-05T13:02:15.864Z,7.70
2019-01-05T13:04:45.388Z,7.70
2019-01-05T13:07:40.075Z,7.70
2019-01-05T13:09:52.516Z,7.60
2019-01-05T13:12:05.983Z,7.70
2019-01-05T13:14:58.543Z,7.70
2019-01-05T13:17:11.442Z,7.70
2019-01-05T13:19:47.018Z,7.70
2019-01-05T13:22:38.456Z,7.70
2019-01-05T13:25:36.131Z,7.70
2019-01-05T13:28:09.696Z,7.70
2019-01-05T13:31:19.037Z,7.70
2019-01-05T13:34:00.391Z,7.60
2019-01-05T13:36:14.784Z,7.70
2019-01-05T13:38:40.625Z,7.70
2019-01-05T13:41:26.277Z,7.70
2019-01-05T13:43:34.144Z,7.70
2019-01-05T13:46:36.074Z,7.70
2019-01-05T13:49:04.184Z,7.70
2019-01-05T13:51:41.122Z,7.70
2019-01-05T13:53:26.319Z,7.70
2019-01-05T13:54:53.042Z,7.70
2019-01-05T13:57:01.287Z,7.70
2019-01-05T13:58:20.815Z,7.70
2019-01-05T13:59:49.687Z,7.70
2019-01-05T14:01:30.622Z,7.60
2019-01-05T14:03:08.515Z,7.70
2019-01-05T14:04:28.838Z,7.70
2019-01-05T14:05:53.643Z,7.70
2019-01-05T14:07:18.512Z,7.70
2019-01-05T14:08:51.096Z,7.70
2019-01-05T14:10:29.439Z,7.70
2019-01-05T14:12:01.874Z,7.60
2019-01-05T14:13:27.006Z,7.70
2019-01-05T14:15:04.271Z,7.60
2019-01-05T14:16:42.067Z,7.60
2019-01-05T14:18:20.008Z,7.70
2019-01-05T14:19:45.613Z,7.60
2019-01-05T14:21:23.751Z,7.60
2019-01-05T14:22:48.131Z,7.60
2019-01-05T14:24:19.615Z,7.60
2019-01-05T14:25:45.488Z,7.60
2019-01-05T14:27:14.561Z,7.70
2019-01-05T14:28:39.053Z,7.70
2019-01-05T14:30:03.496Z,7.60
2019-01-05T14:31:35.603Z,7.60
2019-01-05T14:33:00.280Z,7.60
2019-01-05T14:34:25.409Z,7.70
2019-01-05T14:36:03.102Z,7.70
2019-01-05T14:37:32.482Z,7.60
2019-01-05T14:39:10.424Z,7.60
2019-01-05T14:40:29.940Z,7.60
2019-01-05T14:41:51.600Z,7.60
2019-01-05T14:43:16.051Z,7.60
2019-01-05T14:44:37.919Z,7.60
2019-01-05T14:46:00.195Z,7.60
2019-01-05T14:47:24.470Z,7.70
2019-01-05T14:48:48.938Z,7.70
2019-01-05T14:50:32.921Z,7.70
2019-01-05T14:52:04.515Z,7.60
2019-01-05T14:53:36.552Z,7.60
2019-01-05T14:55:05.866Z,7.60
2019-01-05T14:56:50.713Z,7.60
2019-01-05T14:58:14.741Z,7.60
2019-01-05T14:59:49.676Z,7.60
2019-01-05T15:01:33.518Z,7.60
2019-01-05T15:03:11.186Z,7.60
2019-01-05T15:04:35.398Z,7.60
2019-01-05T15:06:00.912Z,7.60
2019-01-05T15:07:29.703Z,7.60
2019-01-05T15:08:54.052Z,7.60
2019-01-05T15:10:22.725Z,7.50
2019-01-05T15:11:48.280Z,7.50
2019-01-05T15:13:14.890Z,7.50
2019-01-05T15:14:39.736Z,7.50
2019-01-05T15:16:19.499Z,7.40
2019-01-05T15:17:58.787Z,7.50
2019-01-05T15:19:23.593Z,7.60
2019-01-05T15:20:48.045Z,7.60
2019-01-05T15:22:19.936Z,7.50
2019-01-05T15:23:48.183Z,7.50
2019-01-05T15:25:13.696Z,7.60
2019-01-05T15:26:37.357Z,7.50
2019-01-05T15:28:11.577Z,7.60
2019-01-05T15:29:37.085Z,7.50
2019-01-05T15:31:08.474Z,7.50
2019-01-05T15:32:33.850Z,7.50
2019-01-05T15:33:59.092Z,7.60
2019-01-05T15:35:23.325Z,7.50
2019-01-05T15:36:48.170Z,7.50
2019-01-05T15:38:12.313Z,7.50
2019-01-05T15:39:46.958Z,7.50
2019-01-05T15:41:12.964Z,7.50
2019-01-05T15:42:41.482Z,7.50
2019-01-05T15:44:06.187Z,7.50
2019-01-05T15:45:28.184Z,7.50
2019-01-05T15:47:06.477Z,7.40
2019-01-05T15:48:47.308Z,7.50
2019-01-05T15:50:13.478Z,7.50
2019-01-05T15:51:51.587Z,7.50
2019-01-05T15:53:09.288Z,7.40
2019-01-05T15:54:27.347Z,7.40
2019-01-05T15:55:55.815Z,7.40
2019-01-05T15:57:20.386Z,7.40
2019-01-05T15:58:45.219Z,7.50
2019-01-05T16:00:11.078Z,7.40
2019-01-05T16:01:55.500Z,7.40
2019-01-05T16:03:21.077Z,7.40
2019-01-05T16:04:46.517Z,7.40
2019-01-05T16:06:10.962Z,7.40
2019-01-05T16:07:35.366Z,7.40
2019-01-05T16:09:13.904Z,7.40
2019-01-05T16:10:43.498Z,7.40
2019-01-05T16:12:08.348Z,7.40
2019-01-05T16:13:32.935Z,7.40
2019-01-05T16:14:58.521Z,7.40
2019-01-05T16:16:22.709Z,7.40
2019-01-05T16:17:48.597Z,7.40
2019-01-05T16:19:13.031Z,7.40
2019-01-05T16:20:41.526Z,7.40
2019-01-05T16:22:05.934Z,7.40
2019-01-05T16:23:41.001Z,7.40
2019-01-05T16:25:05.196Z,7.40
2019-01-05T16:26:30.913Z,7.40
2019-01-05T16:28:02.316Z,7.40
2019-01-05T16:29:34.268Z,7.40
2019-01-05T16:30:58.787Z,7.40
2019-01-05T16:32:24.338Z,7.40
2019-01-05T16:33:48.632Z,7.40
2019-01-05T16:35:25.864Z,7.40
2019-01-05T16:36:50.065Z,7.40
2019-01-05T16:38:15.743Z,7.50
2019-01-05T16:39:41.864Z,7.50
2019-01-05T16:41:19.973Z,7.40
2019-01-05T16:42:45.834Z,7.40
2019-01-05T16:44:23.998Z,7.30
2019-01-05T16:45:48.455Z,7.40
2019-01-05T16:47:14.024Z,7.40
2019-01-05T16:48:38.372Z,7.40
2019-01-05T16:50:03.113Z,7.30
2019-01-05T16:51:41.471Z,7.40
2019-01-05T16:53:06.290Z,7.30
2019-01-05T16:54:34.618Z,7.40
2019-01-05T16:56:19.070Z,7.30
2019-01-05T16:58:01.655Z,7.30
2019-01-05T16:59:27.464Z,7.30
2019-01-05T17:01:04.928Z,7.30
2019-01-05T17:02:29.193Z,7.30
2019-01-05T17:03:53.636Z,7.40
2019-01-05T17:05:18.316Z,7.40
2019-01-05T17:06:43.149Z,7.40
2019-01-05T17:08:23.964Z,7.30
2019-01-05T17:09:48.703Z,7.40
2019-01-05T17:11:14.209Z,7.40
2019-01-05T17:12:38.959Z,7.40
2019-01-05T17:14:19.842Z,7.40
2019-01-05T17:15:45.579Z,7.40
2019-01-05T17:17:11.630Z,7.40
2019-01-05T17:18:32.734Z,7.40
2019-01-05T17:20:10.778Z,7.40
2019-01-05T17:21:39.290Z,7.40
2019-01-05T17:23:10.816Z,7.50
2019-01-05T17:24:42.979Z,7.50
2019-01-05T17:26:07.748Z,7.40
2019-01-05T17:27:27.505Z,7.30
2019-01-05T17:28:52.604Z,7.40
2019-01-05T17:30:27.221Z,7.40
2019-01-05T17:31:48.923Z,7.40
2019-01-05T17:33:26.598Z,7.40
2019-01-05T17:35:04.447Z,7.40
2019-01-05T17:36:48.186Z,7.40
2019-01-05T17:38:14.406Z,7.50
2019-01-05T17:39:52.401Z,7.50
2019-01-05T17:41:18.588Z,7.50
2019-01-05T17:42:43.498Z,7.40
2019-01-05T17:44:14.143Z,7.40
2019-01-05T17:45:44.423Z,7.30
2019-01-05T17:47:05.618Z,7.40
2019-01-05T17:48:32.808Z,7.40
2019-01-05T17:50:13.903Z,7.40
2019-01-05T17:51:47.311Z,7.40
2019-01-05T17:53:09.618Z,7.40
2019-01-05T17:54:37.910Z,7.40
2019-01-05T17:56:03.410Z,7.40
2019-01-05T17:57:25.854Z,7.40
2019-01-05T17:58:42.522Z,7.30
2019-01-05T18:00:08.083Z,7.40
2019-01-05T18:01:36.354Z,7.40
2019-01-05T18:03:19.962Z,7.40
2019-01-05T18:04:50.941Z,7.30
2019-01-05T18:06:15.225Z,7.40
2019-01-05T18:07:33.773Z,7.40
2019-01-05T18:08:58.357Z,7.40
2019-01-05T18:10:36.763Z,7.50
2019-01-05T18:12:08.544Z,7.40
2019-01-05T18:13:41.971Z,7.50
2019-01-05T18:15:25.868Z,7.40
2019-01-05T18:17:03.655Z,7.50
2019-01-05T18:18:27.544Z,7.50
2019-01-05T18:20:02.170Z,7.50
2019-01-05T18:21:28.123Z,7.40
2019-01-05T18:22:54.018Z,7.40
2019-01-05T18:24:22.652Z,7.40
2019-01-05T18:25:48.142Z,7.40
2019-01-05T18:27:14.140Z,7.40
2019-01-05T18:28:57.986Z,7.40
2019-01-05T18:30:26.398Z,7.40
2019-01-05T18:31:52.758Z,7.40
2019-01-05T18:33:17.042Z,7.50
2019-01-05T18:34:58.430Z,7.40
2019-01-05T18:36:24.349Z,7.40
2019-01-05T18:37:49.135Z,7.40
2019-01-05T18:39:16.375Z,7.30
2019-01-05T18:40:45.137Z,7.30
2019-01-05T18:42:10.453Z,7.40
2019-01-05T18:43:36.001Z,7.40
2019-01-05T18:45:19.829Z,7.30
2019-01-05T18:47:02.850Z,7.40
2019-01-05T18:48:30.305Z,7.40
2019-01-05T18:49:55.859Z,7.40
2019-01-05T18:51:24.286Z,7.40
2019-01-05T18:53:05.162Z,7.30
2019-01-05T18:54:43.029Z,7.40
2019-01-05T18:56:14.947Z,7.30
2019-01-05T18:57:46.273Z,7.30
2019-01-05T18:59:21.619Z,7.30
2019-01-05T19:00:53.624Z,7.30
2019-01-05T19:02:34.158Z,7.30
2019-01-05T19:03:59.360Z,7.30
2019-01-05T19:05:25.174Z,7.30
2019-01-05T19:06:56.778Z,7.30
2019-01-05T19:08:37.962Z,7.30
2019-01-05T19:10:15.868Z,7.30
2019-01-05T19:11:41.216Z,7.30
2019-01-05T19:13:05.877Z,7.30
2019-01-05T19:14:32.038Z,7.30
2019-01-05T19:16:10.559Z,7.30
2019-01-05T19:17:39.264Z,7.30
2019-01-05T19:19:05.066Z,7.30
2019-01-05T19:20:37.074Z,7.30
2019-01-05T19:22:01.277Z,7.40
2019-01-05T19:23:20.416Z,7.30
2019-01-05T19:24:44.978Z,7.30
2019-01-05T19:26:06.310Z,7.30
2019-01-05T19:27:43.943Z,7.30
2019-01-05T19:29:09.780Z,7.40
2019-01-05T19:30:34.467Z,7.30
2019-01-05T19:31:53.861Z,7.30
2019-01-05T19:33:28.310Z,7.30
2019-01-05T19:35:03.092Z,7.30
2019-01-05T19:36:27.654Z,7.30
2019-01-05T19:37:56.267Z,7.30
2019-01-05T19:39:21.791Z,7.30
2019-01-05T19:40:53.496Z,7.30
2019-01-05T19:42:19.255Z,7.30
2019-01-05T19:43:43.703Z,7.30
2019-01-05T19:45:08.960Z,7.30
2019-01-05T19:46:33.366Z,7.40
2019-01-05T19:47:57.668Z,7.40
2019-01-05T19:49:38.588Z,7.30
2019-01-05T19:51:16.189Z,7.30
2019-01-05T19:52:45.185Z,7.30
2019-01-05T19:54:09.468Z,7.40
2019-01-05T19:55:34.243Z,7.40
2019-01-05T19:57:02.908Z,7.30
2019-01-05T19:58:27.505Z,7.30
2019-01-05T19:59:58.480Z,7.30
2019-01-05T20:01:23.196Z,7.30
2019-01-05T20:02:46.000Z,7.30
2019-01-05T20:04:10.575Z,7.30
2019-01-05T20:05:35.244Z,7.20
2019-01-05T20:07:07.004Z,7.30
2019-01-05T20:08:31.492Z,7.20
2019-01-05T20:09:57.187Z,7.20
2019-01-05T20:11:42.148Z,7.20
2019-01-05T20:13:07.795Z,7.20
2019-01-05T20:14:32.818Z,7.20
2019-01-05T20:16:09.151Z,7.20
2019-01-05T20:17:35.666Z,7.20
2019-01-05T20:19:11.829Z,7.10
2019-01-05T20:20:40.273Z,7.20
2019-01-05T20:22:39.976Z,7.20
2019-01-05T20:23:51.301Z,7.10
2019-01-05T20:25:36.181Z,7.10
2019-01-05T20:27:04.560Z,7.10
2019-01-05T20:28:38.393Z,7.20
2019-01-05T20:30:13.881Z,7.20
2019-01-05T20:31:44.994Z,7.20
2019-01-05T20:33:10.510Z,7.20
2019-01-05T20:34:36.482Z,7.10
2019-01-05T20:36:06.026Z,7.10
2019-01-05T20:37:32.334Z,7.20
2019-01-05T20:38:57.009Z,7.10
2019-01-05T20:40:17.997Z,7.10
2019-01-05T20:41:43.080Z,7.10
2019-01-05T20:43:20.932Z,7.10
2019-01-05T20:44:55.495Z,7.10
2019-01-05T20:46:20.990Z,7.00
2019-01-05T20:47:56.732Z,7.00
2019-01-05T20:49:21.329Z,7.10
2019-01-05T20:50:47.994Z,7.10
2019-01-05T20:52:13.683Z,7.10
2019-01-05T20:53:49.823Z,7.10
2019-01-05T20:55:21.695Z,7.10
2019-01-05T20:56:46.577Z,7.10
2019-01-05T20:58:11.301Z,7.10
2019-01-05T20:59:42.660Z,7.10
2019-01-05T21:01:20.303Z,7.10
2019-01-05T21:02:51.579Z,7.10
2019-01-05T21:04:20.352Z,7.10
2019-01-05T21:05:44.817Z,7.10
2019-01-05T21:07:09.344Z,7.10
2019-01-05T21:08:40.850Z,7.20
2019-01-05T21:10:15.693Z,7.10
2019-01-05T21:11:39.993Z,7.10
2019-01-05T21:13:15.093Z,7.10
2019-01-05T21:14:39.489Z,7.10
2019-01-05T21:16:05.427Z,7.00
2019-01-05T21:17:29.493Z,7.10
2019-01-05T21:19:13.500Z,7.00
2019-01-05T21:20:42.140Z,7.10
2019-01-05T21:22:13.819Z,7.10
2019-01-05T21:23:37.996Z,7.10
2019-01-05T21:25:06.842Z,7.10
2019-01-05T21:26:32.045Z,7.00
2019-01-05T21:27:57.894Z,7.10
2019-01-05T21:29:22.565Z,7.00
2019-01-05T21:30:57.142Z,7.00
2019-01-05T21:32:21.766Z,7.00
2019-01-05T21:33:47.354Z,7.00
2019-01-05T21:35:09.207Z,7.00
2019-01-05T21:36:38.109Z,7.00
2019-01-05T21:38:07.099Z,6.90
2019-01-05T21:39:42.002Z,6.90
2019-01-05T21:41:06.731Z,7.00
2019-01-05T21:42:31.228Z,7.00
2019-01-05T21:44:12.315Z,7.00
2019-01-05T21:45:38.219Z,7.00
2019-01-05T21:47:03.114Z,6.90
2019-01-05T21:48:34.902Z,6.90
2019-01-05T21:50:03.612Z,6.90
2019-01-05T21:51:47.275Z,6.90
2019-01-05T21:53:11.778Z,7.00
2019-01-05T21:54:45.920Z,7.00
2019-01-05T21:56:17.827Z,7.00
2019-01-05T21:57:45.750Z,6.90
2019-01-05T21:59:17.218Z,6.90
2019-01-05T22:00:42.762Z,6.90
2019-01-05T22:02:08.817Z,6.90
2019-01-05T22:03:33.319Z,6.90
2019-01-05T22:05:02.023Z,6.90
2019-01-05T22:06:26.179Z,6.90
2019-01-05T22:07:51.019Z,6.90
2019-01-05T22:09:15.115Z,6.90
2019-01-05T22:10:38.436Z,7.00
2019-01-05T22:12:04.186Z,6.90
2019-01-05T22:13:30.102Z,6.90
2019-01-05T22:14:50.200Z,6.90
2019-01-05T22:16:21.835Z,6.90
2019-01-05T22:18:05.794Z,7.00
2019-01-05T22:19:41.092Z,7.00
2019-01-05T22:21:15.466Z,7.00
2019-01-05T22:22:47.805Z,7.00
2019-01-05T22:24:12.641Z,6.90
2019-01-05T22:25:41.298Z,6.90
2019-01-05T22:27:05.521Z,6.90
2019-01-05T22:28:30.570Z,6.90
2019-01-05T22:30:05.029Z,6.90
2019-01-05T22:31:31.117Z,6.90
2019-01-05T22:32:56.075Z,6.90
2019-01-05T22:34:20.872Z,6.90
2019-01-05T22:35:49.426Z,6.90
2019-01-05T22:37:17.601Z,6.90
2019-01-05T22:38:49.123Z,7.00
2019-01-05T22:40:13.834Z,6.90
2019-01-05T22:41:38.375Z,7.00
2019-01-05T22:43:04.019Z,7.00
2019-01-05T22:44:32.996Z,6.90
2019-01-05T22:46:01.767Z,7.00
2019-01-05T22:47:26.385Z,7.00
2019-01-05T22:49:04.901Z,7.00
2019-01-05T22:50:35.911Z,7.00
2019-01-05T22:52:00.500Z,7.00
2019-01-05T22:53:47.096Z,7.00
2019-01-05T22:55:27.858Z,7.00
2019-01-05T22:57:02.444Z,7.00
2019-01-05T22:58:27.094Z,7.00
2019-01-05T22:59:53.078Z,7.00
2019-01-05T23:01:21.447Z,7.00
2019-01-05T23:02:50.061Z,7.00
2019-01-05T23:04:14.483Z,7.00
2019-01-05T23:05:42.835Z,7.00
2019-01-05T23:07:07.288Z,7.00
2019-01-05T23:08:39.507Z,7.00
2019-01-05T23:10:08.937Z,7.00
2019-01-05T23:11:32.886Z,7.00
2019-01-05T23:12:57.470Z,7.00
2019-01-05T23:14:22.479Z,7.00
2019-01-05T23:16:03.277Z,7.00
2019-01-05T23:17:38.030Z,7.00
2019-01-05T23:19:07.003Z,7.00
2019-01-05T23:20:31.739Z,7.00
2019-01-05T23:21:58.293Z,7.00
2019-01-05T23:23:32.893Z,7.10
2019-01-05T23:25:07.908Z,7.00
2019-01-05T23:26:32.318Z,7.10
2019-01-05T23:28:02.567Z,7.10
2019-01-05T23:29:27.364Z,7.10
2019-01-05T23:30:49.886Z,7.10
2019-01-05T23:32:14.702Z,7.10
2019-01-05T23:33:35.438Z,7.10
2019-01-05T23:35:19.439Z,7.10
2019-01-05T23:36:54.053Z,7.10
2019-01-05T23:38:35.016Z,7.00
2019-01-05T23:39:58.909Z,7.00
2019-01-05T23:41:20.554Z,7.00
2019-01-05T23:42:50.156Z,6.90
2019-01-05T23:44:13.122Z,7.00
2019-01-05T23:45:51.012Z,7.00
2019-01-05T23:47:25.254Z,7.00
2019-01-05T23:48:49.728Z,7.00
2019-01-05T23:50:20.958Z,7.00
2019-01-05T23:51:45.451Z,7.00
2019-01-05T23:53:09.882Z,7.00
2019-01-05T23:54:34.191Z,7.10
2019-01-05T23:55:59.716Z,7.10
2019-01-05T23:57:24.014Z,7.00
2019-01-05T23:58:48.752Z,7.00
